Cave Spring, Kentucky
Current Conditions -  °F | °C
As of 7:15 PM on Friday 28 Nov 2014 (Local Time) from KM91 Reporting Station
Clear Clear  
Wind Chill: 34°   Ceiling: Unl
Heat Index: 41°   Visibility: 10mi
Dew Point: 25°   Wind: 12mph
Humidity: 53%   Direction: 180°S
Pressure: 30.12"   Gusts: NA
Location:  36.8547°N, 86.8859°W
Report Text: KM91 290115Z AUTO 18010KT 10SM CLR 05/M04 A3012 RMK
Loading
Personal Weather Stations






























Interactive Weather Map New forecast layout! Learn more

10-Day Weather Forecast

Advertisements
Track Severe Weather on mobile